createdAt,value
2022-10-13T00:03:37.706Z,13.68
2022-10-13T00:06:06.688Z,13.75
2022-10-13T00:08:34.248Z,13.88
2022-10-13T00:11:02.410Z,14.63
2022-10-13T00:13:30.762Z,14.13
2022-10-13T00:15:58.310Z,13.60
2022-10-13T00:18:28.340Z,13.90
2022-10-13T00:20:57.699Z,14.35
2022-10-13T00:23:25.408Z,14.85
2022-10-13T00:25:53.233Z,13.63
2022-10-13T00:28:21.948Z,12.77
2022-10-13T00:30:50.262Z,14.93
2022-10-13T00:33:17.761Z,14.60
2022-10-13T00:35:49.994Z,13.48
2022-10-13T00:38:19.988Z,13.95
2022-10-13T00:40:48.855Z,14.55
2022-10-13T00:43:27.034Z,14.77
2022-10-13T00:45:55.379Z,13.52
2022-10-13T00:48:24.680Z,14.48
2022-10-13T00:50:54.117Z,14.55
2022-10-13T00:53:24.677Z,14.85
2022-10-13T00:58:23.513Z,14.85
2022-10-13T01:00:55.133Z,14.55
2022-10-13T01:03:23.657Z,15.95
2022-10-13T01:05:53.541Z,15.52
2022-10-13T01:08:24.545Z,15.20
2022-10-13T01:11:06.857Z,14.77
2022-10-13T01:13:58.409Z,15.40
2022-10-13T01:16:37.577Z,14.45
2022-10-13T01:19:24.111Z,15.30
2022-10-13T01:22:16.449Z,14.40
2022-10-13T01:24:47.713Z,14.10
2022-10-13T01:27:28.200Z,13.88
2022-10-13T01:30:18.763Z,13.93
2022-10-13T01:35:24.800Z,14.38
2022-10-13T01:37:58.801Z,14.00
2022-10-13T01:40:28.340Z,15.15
2022-10-13T01:43:29.188Z,14.95
2022-10-13T01:45:59.702Z,14.63
2022-10-13T01:50:57.491Z,15.18
2022-10-13T01:53:25.646Z,15.40
2022-10-13T01:55:59.613Z,15.30
2022-10-13T01:58:29.658Z,14.57
2022-10-13T02:01:06.111Z,15.40
2022-10-13T02:03:39.624Z,14.70
2022-10-13T02:06:14.219Z,14.68
2022-10-13T02:08:45.162Z,14.82
2022-10-13T02:13:42.621Z,15.18
2022-10-13T02:16:10.896Z,14.65
2022-10-13T02:18:39.172Z,13.60
2022-10-13T02:21:06.742Z,13.82
2022-10-13T02:23:34.168Z,13.85
2022-10-13T02:26:02.689Z,13.50
2022-10-13T02:28:30.777Z,14.30
2022-10-13T02:30:58.372Z,14.38
2022-10-13T02:33:25.758Z,14.35
2022-10-13T02:35:54.692Z,12.85
2022-10-13T02:38:23.368Z,14.25
2022-10-13T02:40:53.633Z,13.02
2022-10-13T02:43:22.436Z,13.82
2022-10-13T02:45:50.108Z,13.40
2022-10-13T02:48:17.855Z,14.40
2022-10-13T02:50:45.503Z,12.68
2022-10-13T02:53:12.907Z,13.68
2022-10-13T02:55:40.279Z,12.85
2022-10-13T02:58:07.938Z,13.02
2022-10-13T03:00:35.397Z,14.13
2022-10-13T03:03:03.716Z,14.40
2022-10-13T03:05:31.250Z,13.10
2022-10-13T03:07:59.140Z,13.55
2022-10-13T03:10:27.136Z,13.80
2022-10-13T03:12:56.073Z,13.70
2022-10-13T03:15:25.265Z,13.18
2022-10-13T03:17:55.658Z,13.90
2022-10-13T03:20:24.486Z,13.85
2022-10-13T03:22:54.405Z,14.15
2022-10-13T03:25:22.614Z,13.07
2022-10-13T03:27:55.702Z,13.50
2022-10-13T03:30:24.198Z,12.88
2022-10-13T03:32:55.248Z,14.25
2022-10-13T03:35:23.579Z,14.70
2022-10-13T03:37:50.990Z,14.48
2022-10-13T03:40:24.997Z,14.93
2022-10-13T03:42:55.760Z,13.95
2022-10-13T03:45:24.792Z,14.55
2022-10-13T03:47:56.515Z,15.10
2022-10-13T03:50:25.438Z,14.70
2022-10-13T03:52:55.108Z,15.10
2022-10-13T03:55:23.862Z,15.05
2022-10-13T03:57:53.433Z,14.35
2022-10-13T04:00:20.977Z,14.80
2022-10-13T04:02:50.490Z,15.32
2022-10-13T04:05:18.029Z,13.82
2022-10-13T04:07:45.421Z,16.63
2022-10-13T04:10:19.527Z,15.38
2022-10-13T04:12:50.857Z,16.02
2022-10-13T04:15:18.403Z,14.80
2022-10-13T04:17:46.043Z,14.82
2022-10-13T04:20:13.807Z,16.17
2022-10-13T04:22:41.215Z,15.15
2022-10-13T04:25:09.452Z,14.65
2022-10-13T04:27:39.211Z,14.02
2022-10-13T04:30:07.183Z,15.63
2022-10-13T04:32:34.734Z,13.80
2022-10-13T04:35:03.733Z,14.10
2022-10-13T04:37:31.777Z,15.43
2022-10-13T04:39:59.414Z,14.80
2022-10-13T04:42:26.914Z,13.90
2022-10-13T04:44:56.044Z,14.57
2022-10-13T04:49:53.387Z,14.25
2022-10-13T04:52:21.130Z,14.20
2022-10-13T04:54:50.751Z,14.30
2022-10-13T04:57:18.373Z,15.05
2022-10-13T04:59:45.728Z,14.73
2022-10-13T05:02:13.193Z,14.85
2022-10-13T05:04:41.545Z,14.73
2022-10-13T05:07:18.995Z,13.45
2022-10-13T05:09:47.729Z,14.45
2022-10-13T05:12:16.019Z,15.32
2022-10-13T05:14:43.638Z,14.30
2022-10-13T05:17:12.858Z,14.75
2022-10-13T05:19:41.305Z,15.88
2022-10-13T05:22:08.868Z,14.82
2022-10-13T05:24:39.291Z,14.55
2022-10-13T05:27:08.245Z,15.25
2022-10-13T05:29:39.398Z,14.02
2022-10-13T05:32:07.125Z,14.55
2022-10-13T05:34:35.660Z,15.30
2022-10-13T05:37:03.457Z,14.23
2022-10-13T05:42:01.511Z,14.27
2022-10-13T05:44:28.945Z,13.93
2022-10-13T05:46:57.455Z,15.30
2022-10-13T05:49:24.929Z,13.65
2022-10-13T05:51:55.311Z,15.23
2022-10-13T05:54:31.235Z,15.45
2022-10-13T05:57:01.950Z,15.07
2022-10-13T05:59:31.368Z,15.65
2022-10-13T06:01:59.923Z,14.90
2022-10-13T06:04:31.316Z,14.27
2022-10-13T06:06:59.262Z,14.35
2022-10-13T06:09:37.444Z,14.32
2022-10-13T06:12:05.756Z,14.63
2022-10-13T06:14:33.343Z,15.27
2022-10-13T06:17:04.455Z,15.18
2022-10-13T06:19:32.611Z,14.68
2022-10-13T06:22:08.206Z,14.93
2022-10-13T06:24:36.416Z,14.65
2022-10-13T06:27:06.028Z,14.70
2022-10-13T06:29:33.817Z,14.52
2022-10-13T06:32:01.822Z,15.52
2022-10-13T06:34:29.587Z,14.38
2022-10-13T06:36:58.398Z,14.95
2022-10-13T06:39:26.748Z,15.18
2022-10-13T06:41:55.512Z,15.45
2022-10-13T06:44:32.082Z,15.82
2022-10-13T06:47:03.599Z,16.42
2022-10-13T06:49:31.211Z,15.82
2022-10-13T06:51:59.089Z,14.48
2022-10-13T06:54:26.727Z,14.80
2022-10-13T06:56:55.066Z,15.50
2022-10-13T06:59:23.810Z,16.15
2022-10-13T07:01:55.947Z,15.70
2022-10-13T07:04:26.260Z,16.95
2022-10-13T07:06:58.818Z,16.55
2022-10-13T07:09:26.357Z,16.75
2022-10-13T07:11:54.267Z,16.88
2022-10-13T07:14:22.231Z,16.52
2022-10-13T07:16:50.341Z,16.58
2022-10-13T07:19:18.013Z,16.13
2022-10-13T07:21:45.525Z,16.23
2022-10-13T07:24:13.494Z,16.50
2022-10-13T07:26:40.958Z,18.10
2022-10-13T07:29:08.870Z,17.38
2022-10-13T07:31:37.614Z,17.75
2022-10-13T07:34:06.869Z,17.50
2022-10-13T07:36:35.574Z,17.38
2022-10-13T07:39:04.245Z,18.02
2022-10-13T07:41:32.005Z,17.42
2022-10-13T07:43:59.798Z,18.02
2022-10-13T07:46:28.028Z,17.60
2022-10-13T07:48:55.875Z,16.80
2022-10-13T07:51:24.320Z,17.45
2022-10-13T07:53:53.604Z,17.63
2022-10-13T07:56:21.018Z,17.70
2022-10-13T07:58:49.615Z,18.33
2022-10-13T08:01:17.786Z,18.58
2022-10-13T08:03:49.900Z,17.27
2022-10-13T08:06:23.794Z,17.85
2022-10-13T08:08:54.632Z,19.38
2022-10-13T08:11:25.222Z,17.50
2022-10-13T08:13:55.956Z,17.63
2022-10-13T08:16:24.268Z,18.15
2022-10-13T08:18:52.102Z,18.20
2022-10-13T08:24:09.924Z,17.42
2022-10-13T08:26:37.341Z,17.95
2022-10-13T08:29:22.332Z,18.55
2022-10-13T08:31:53.193Z,18.27
2022-10-13T08:34:22.435Z,18.58
2022-10-13T08:36:54.263Z,18.30
2022-10-13T08:39:23.494Z,17.90
2022-10-13T08:41:50.927Z,18.38
2022-10-13T08:47:18.540Z,18.20
2022-10-13T08:49:47.420Z,17.42
2022-10-13T08:52:19.092Z,16.73
2022-10-13T08:54:47.240Z,17.45
2022-10-13T08:57:16.033Z,17.58
2022-10-13T08:59:43.527Z,17.95
2022-10-13T09:02:13.214Z,17.17
2022-10-13T09:04:42.140Z,16.67
2022-10-13T09:07:09.896Z,17.27
2022-10-13T09:09:38.160Z,17.45
2022-10-13T09:12:06.500Z,17.02
2022-10-13T09:14:38.096Z,16.88
2022-10-13T09:17:21.003Z,14.55
2022-10-13T09:20:03.813Z,16.38
2022-10-13T09:22:34.198Z,15.65
2022-10-13T09:25:08.353Z,16.50
2022-10-13T09:27:48.846Z,15.43
2022-10-13T09:30:32.214Z,16.08
2022-10-13T09:33:16.267Z,15.73
2022-10-13T09:35:45.863Z,16.27
2022-10-13T09:38:16.770Z,16.57
2022-10-13T09:40:56.771Z,15.88
2022-10-13T09:43:29.940Z,14.35
2022-10-13T09:45:57.938Z,14.80
2022-10-13T09:48:29.799Z,14.90
2022-10-13T09:50:58.091Z,14.55
2022-10-13T09:53:46.008Z,15.13
2022-10-13T09:56:22.488Z,15.13
2022-10-13T09:59:11.371Z,15.25
2022-10-13T10:01:41.448Z,14.50
2022-10-13T10:04:18.829Z,13.65
2022-10-13T10:06:46.965Z,13.68
2022-10-13T10:09:17.863Z,13.95
2022-10-13T10:11:46.847Z,14.32
2022-10-13T10:14:17.404Z,13.95
2022-10-13T10:19:25.991Z,14.10
2022-10-13T10:21:54.365Z,13.80
2022-10-13T10:24:32.885Z,13.95
2022-10-13T10:30:02.446Z,13.93
2022-10-13T10:32:37.261Z,14.20
2022-10-13T10:35:11.039Z,13.60
2022-10-13T10:37:54.089Z,14.40
2022-10-13T10:40:24.840Z,13.75
2022-10-13T10:45:26.235Z,14.40
2022-10-13T10:48:14.023Z,14.95
2022-10-13T10:50:42.233Z,14.40
2022-10-13T10:53:32.432Z,14.75
2022-10-13T10:56:03.648Z,15.80
2022-10-13T10:58:37.237Z,14.95
2022-10-13T11:01:23.505Z,15.35
2022-10-13T11:03:58.013Z,15.07
2022-10-13T11:06:26.905Z,16.98
2022-10-13T11:08:56.932Z,16.10
2022-10-13T11:11:33.441Z,16.00
2022-10-13T11:14:07.666Z,16.75
2022-10-13T11:19:08.044Z,16.42
2022-10-13T11:21:54.222Z,15.55
2022-10-13T11:24:38.884Z,14.90
2022-10-13T11:27:11.565Z,15.18
2022-10-13T11:29:54.112Z,14.73
2022-10-13T11:32:27.946Z,15.23
2022-10-13T11:35:13.944Z,14.82
2022-10-13T11:38:07.991Z,15.48
2022-10-13T11:41:01.884Z,16.05
2022-10-13T11:43:51.537Z,15.48
2022-10-13T11:46:39.267Z,16.88
2022-10-13T11:49:07.792Z,16.80
2022-10-13T11:51:54.293Z,16.27
2022-10-13T11:54:32.481Z,15.80
2022-10-13T11:57:00.019Z,15.52
2022-10-13T11:59:29.726Z,16.08
2022-10-13T12:02:18.932Z,15.13
2022-10-13T12:05:00.225Z,15.07
2022-10-13T12:07:29.562Z,15.05
2022-10-13T12:09:58.735Z,15.43
2022-10-13T12:12:26.781Z,14.23
2022-10-13T12:14:58.828Z,14.32
2022-10-13T12:17:31.275Z,14.30
2022-10-13T12:20:03.250Z,14.30
2022-10-13T12:22:31.635Z,15.15
2022-10-13T12:25:00.548Z,13.95
2022-10-13T12:27:28.805Z,15.45
2022-10-13T12:29:56.419Z,14.73
2022-10-13T12:32:26.697Z,14.45
2022-10-13T12:34:54.344Z,15.13
2022-10-13T12:37:34.412Z,13.70
2022-10-13T12:40:02.265Z,13.50
2022-10-13T12:42:32.629Z,15.15
2022-10-13T12:47:45.832Z,15.48
2022-10-13T12:50:28.283Z,16.13
2022-10-13T12:52:58.829Z,15.73
2022-10-13T12:57:55.215Z,16.00
2022-10-13T13:00:24.365Z,15.93
2022-10-13T13:02:55.285Z,16.13
2022-10-13T13:05:37.119Z,15.88
2022-10-13T13:08:06.206Z,17.67
2022-10-13T13:10:35.162Z,16.30
2022-10-13T13:13:14.486Z,16.85
2022-10-13T13:15:42.187Z,18.38
2022-10-13T13:18:43.330Z,18.52
2022-10-13T13:21:14.795Z,17.95
2022-10-13T13:23:43.375Z,18.00
2022-10-13T13:26:16.244Z,17.35
2022-10-13T13:28:46.490Z,17.70
2022-10-13T13:31:16.767Z,18.15
2022-10-13T13:33:44.442Z,17.38
2022-10-13T13:36:17.469Z,16.60
2022-10-13T13:38:47.627Z,15.73
2022-10-13T13:41:16.354Z,16.48
2022-10-13T13:43:44.271Z,16.30
2022-10-13T13:46:20.466Z,17.13
2022-10-13T13:48:48.137Z,16.40
2022-10-13T13:51:17.348Z,16.33
2022-10-13T13:53:46.485Z,16.73
2022-10-13T13:56:20.036Z,15.88
2022-10-13T13:58:48.186Z,16.70
2022-10-13T14:01:16.324Z,16.33
2022-10-13T14:03:43.981Z,16.95
2022-10-13T14:06:19.334Z,16.98
2022-10-13T14:08:47.029Z,16.90
2022-10-13T14:11:18.420Z,16.10
2022-10-13T14:13:46.428Z,17.52
2022-10-13T14:16:25.557Z,16.63
2022-10-13T14:18:58.256Z,16.02
2022-10-13T14:21:26.821Z,17.83
2022-10-13T14:23:57.455Z,17.10
2022-10-13T14:26:25.127Z,17.85
2022-10-13T14:28:55.507Z,18.02
2022-10-13T14:31:26.262Z,18.30
2022-10-13T14:33:54.773Z,18.95
2022-10-13T14:38:52.776Z,17.60
2022-10-13T14:41:20.371Z,18.85
2022-10-13T14:43:54.222Z,17.63
2022-10-13T14:46:21.913Z,19.98
2022-10-13T14:48:49.533Z,17.15
2022-10-13T14:51:18.798Z,18.55
2022-10-13T14:53:46.515Z,19.35
2022-10-13T14:56:19.573Z,18.13
2022-10-13T14:58:56.105Z,18.40
2022-10-13T15:01:25.161Z,18.33
2022-10-13T15:03:54.655Z,18.15
2022-10-13T15:06:24.206Z,17.25
2022-10-13T15:08:55.101Z,18.27
2022-10-13T15:11:27.694Z,17.00
2022-10-13T15:13:56.441Z,18.30
2022-10-13T15:16:26.408Z,17.48
2022-10-13T15:18:54.488Z,18.00
2022-10-13T15:21:24.758Z,17.65
2022-10-13T15:23:55.442Z,18.25
2022-10-13T15:26:23.214Z,16.75
2022-10-13T15:28:55.869Z,17.85
2022-10-13T15:31:25.330Z,17.77
2022-10-13T15:33:54.029Z,17.88
2022-10-13T15:36:26.207Z,16.83
2022-10-13T15:38:57.536Z,17.73
2022-10-13T15:41:25.770Z,18.05
2022-10-13T15:43:54.602Z,18.08
2022-10-13T15:46:24.029Z,17.85
2022-10-13T15:48:53.365Z,17.88
2022-10-13T15:51:25.504Z,17.77
2022-10-13T15:53:55.893Z,18.52
2022-10-13T15:56:24.013Z,17.92
2022-10-13T15:58:52.173Z,18.67
2022-10-13T16:01:19.878Z,18.25
2022-10-13T16:03:47.479Z,19.52
2022-10-13T16:06:15.537Z,18.38
2022-10-13T16:08:46.724Z,18.50
2022-10-13T16:11:17.685Z,18.10
2022-10-13T16:13:46.980Z,18.40
2022-10-13T16:16:15.163Z,19.20
2022-10-13T16:18:42.995Z,18.27
2022-10-13T16:21:14.525Z,18.98
2022-10-13T16:23:46.319Z,20.27
2022-10-13T16:26:14.026Z,18.20
2022-10-13T16:28:41.514Z,20.55
2022-10-13T16:31:13.033Z,19.58
2022-10-13T16:33:43.628Z,18.50
2022-10-13T16:36:15.955Z,19.42
2022-10-13T16:38:44.358Z,19.52
2022-10-13T16:41:16.369Z,19.88
2022-10-13T16:43:44.509Z,20.17
2022-10-13T16:46:16.028Z,20.10
2022-10-13T16:48:44.584Z,20.38
2022-10-13T16:51:17.030Z,20.15
2022-10-13T16:53:48.366Z,21.65
2022-10-13T16:56:15.968Z,21.17
2022-10-13T16:58:45.314Z,22.05
2022-10-13T17:01:13.351Z,21.63
2022-10-13T17:03:41.204Z,21.92
2022-10-13T17:06:08.996Z,22.70
2022-10-13T17:08:37.779Z,22.13
2022-10-13T17:11:05.948Z,22.60
2022-10-13T17:13:34.880Z,23.23
2022-10-13T17:16:05.305Z,22.95
2022-10-13T17:18:34.040Z,22.70
2022-10-13T17:21:02.461Z,23.15
2022-10-13T17:23:30.816Z,24.13
2022-10-13T17:26:03.681Z,22.90
2022-10-13T17:28:31.941Z,25.30
2022-10-13T17:31:02.677Z,24.58
2022-10-13T17:33:31.538Z,24.67
2022-10-13T17:36:03.608Z,24.25
2022-10-13T17:38:31.313Z,25.20
2022-10-13T17:41:03.324Z,24.92
2022-10-13T17:43:31.881Z,25.05
2022-10-13T17:46:34.934Z,25.65
2022-10-13T17:49:01.188Z,26.15
2022-10-13T17:51:29.199Z,27.73
2022-10-13T17:53:58.815Z,26.42
2022-10-13T17:56:26.851Z,28.20
2022-10-13T17:58:55.845Z,28.88
2022-10-13T18:01:27.583Z,28.98
2022-10-13T18:04:00.678Z,28.55
2022-10-13T18:06:33.821Z,29.77
2022-10-13T18:09:09.813Z,28.20
2022-10-13T18:11:38.108Z,29.00
2022-10-13T18:14:05.877Z,29.38
2022-10-13T18:16:33.640Z,29.50
2022-10-13T18:19:01.720Z,29.60
2022-10-13T18:21:29.545Z,29.42
2022-10-13T18:23:58.306Z,30.75
2022-10-13T18:26:26.463Z,30.73
2022-10-13T18:28:55.209Z,31.13
2022-10-13T18:31:27.944Z,30.38
2022-10-13T18:33:59.876Z,30.38
2022-10-13T18:36:30.975Z,32.42
2022-10-13T18:39:11.896Z,32.85
2022-10-13T18:41:46.213Z,33.10
2022-10-13T18:44:13.769Z,33.05
2022-10-13T18:46:45.253Z,32.45
2022-10-13T18:49:14.147Z,32.55
2022-10-13T18:51:43.779Z,33.15
2022-10-13T18:54:11.731Z,33.45
2022-10-13T18:56:40.260Z,34.08
2022-10-13T18:59:09.241Z,32.75
2022-10-13T19:01:37.623Z,34.78
2022-10-13T19:04:06.545Z,33.53
2022-10-13T19:06:35.845Z,34.17
2022-10-13T19:09:06.212Z,33.60
2022-10-13T19:11:37.411Z,32.85
2022-10-13T19:14:06.038Z,33.08
2022-10-13T19:16:35.915Z,34.50
2022-10-13T19:19:03.813Z,36.47
2022-10-13T19:21:32.788Z,35.95
2022-10-13T19:24:01.028Z,38.30
2022-10-13T19:26:30.655Z,35.20
2022-10-13T19:29:00.475Z,37.60
2022-10-13T19:31:29.433Z,35.72
2022-10-13T19:33:57.341Z,36.97
2022-10-13T19:36:27.522Z,37.45
2022-10-13T19:38:56.719Z,37.17
2022-10-13T19:41:26.330Z,37.85
2022-10-13T19:43:54.202Z,39.27
2022-10-13T19:46:24.242Z,37.90
2022-10-13T19:48:52.176Z,42.10
2022-10-13T19:51:19.602Z,39.55
2022-10-13T19:53:47.098Z,40.38
2022-10-13T19:56:23.917Z,41.38
2022-10-13T19:58:55.728Z,41.92
2022-10-13T20:01:24.866Z,42.80
2022-10-13T20:03:54.305Z,43.08
2022-10-13T20:06:25.039Z,44.90
2022-10-13T20:08:53.497Z,41.55
2022-10-13T20:11:24.636Z,40.85
2022-10-13T20:13:54.625Z,41.78
2022-10-13T20:16:24.320Z,43.00
2022-10-13T20:18:55.986Z,38.30
2022-10-13T20:21:41.863Z,37.53
2022-10-13T20:24:11.829Z,36.08
2022-10-13T20:26:40.875Z,35.70
2022-10-13T20:29:09.019Z,32.67
2022-10-13T20:31:37.047Z,33.70
2022-10-13T20:34:05.213Z,32.30
2022-10-13T20:36:38.352Z,31.48
2022-10-13T20:39:06.920Z,29.30
2022-10-13T20:41:34.448Z,29.38
2022-10-13T20:44:03.464Z,28.40
2022-10-13T20:46:34.031Z,26.35
2022-10-13T20:49:16.850Z,26.15
2022-10-13T20:51:45.585Z,25.08
2022-10-13T20:54:17.751Z,26.65
2022-10-13T20:56:47.428Z,25.67
2022-10-13T20:59:15.422Z,28.17
2022-10-13T21:01:43.729Z,28.92
2022-10-13T21:04:12.033Z,29.60
2022-10-13T21:06:41.441Z,29.55
2022-10-13T21:09:09.268Z,29.02
2022-10-13T21:14:08.736Z,28.52
2022-10-13T21:16:37.751Z,29.83
2022-10-13T21:19:09.861Z,28.35
2022-10-13T21:21:38.109Z,30.05
2022-10-13T21:24:08.053Z,31.60
2022-10-13T21:26:36.016Z,30.95
2022-10-13T21:29:05.083Z,32.83
2022-10-13T21:31:34.968Z,31.95
2022-10-13T21:34:03.535Z,30.15
2022-10-13T21:36:32.333Z,30.27
2022-10-13T21:39:01.642Z,29.63
2022-10-13T21:41:30.737Z,30.08
2022-10-13T21:43:59.546Z,30.45
2022-10-13T21:46:32.191Z,29.75
2022-10-13T21:49:00.718Z,30.33
2022-10-13T21:51:31.248Z,31.75
2022-10-13T21:54:03.166Z,31.73
2022-10-13T21:56:31.671Z,32.85
2022-10-13T21:58:59.925Z,32.60
2022-10-13T22:01:27.756Z,33.17
2022-10-13T22:03:56.582Z,31.70
2022-10-13T22:06:27.483Z,32.60
2022-10-13T22:08:56.119Z,32.38
2022-10-13T22:11:31.234Z,32.38
2022-10-13T22:13:59.511Z,31.75
2022-10-13T22:16:28.901Z,31.67
2022-10-13T22:18:57.279Z,33.88
2022-10-13T22:21:29.637Z,33.65
2022-10-13T22:23:58.326Z,32.85
2022-10-13T22:26:26.693Z,34.35
2022-10-13T22:28:55.546Z,32.15
2022-10-13T22:31:26.667Z,33.15
2022-10-13T22:33:54.591Z,33.42
2022-10-13T22:36:27.029Z,33.95
2022-10-13T22:39:02.259Z,33.80
2022-10-13T22:41:31.135Z,33.90
2022-10-13T22:43:59.418Z,33.53
2022-10-13T22:46:31.635Z,33.45
2022-10-13T22:48:59.606Z,34.13
2022-10-13T22:51:28.147Z,32.72
2022-10-13T22:53:56.250Z,32.47
2022-10-13T22:56:31.257Z,30.67
2022-10-13T22:59:06.258Z,32.60
2022-10-13T23:01:34.192Z,30.67
2022-10-13T23:04:01.656Z,28.77
2022-10-13T23:06:30.738Z,29.10
2022-10-13T23:09:00.907Z,31.50
2022-10-13T23:11:28.804Z,30.27
2022-10-13T23:13:57.624Z,27.48
2022-10-13T23:16:27.023Z,29.58
2022-10-13T23:18:54.696Z,28.23
2022-10-13T23:21:29.375Z,29.08
2022-10-13T23:24:04.612Z,28.98
2022-10-13T23:26:32.761Z,27.67
2022-10-13T23:29:00.855Z,29.70
2022-10-13T23:31:28.838Z,27.33
2022-10-13T23:33:57.194Z,28.75
2022-10-13T23:36:25.989Z,27.75
2022-10-13T23:38:56.242Z,29.83
2022-10-13T23:41:24.752Z,29.17
2022-10-13T23:43:53.863Z,27.45
2022-10-13T23:46:22.126Z,28.02
2022-10-13T23:48:50.351Z,28.25
2022-10-13T23:51:19.727Z,29.20
2022-10-13T23:53:47.669Z,29.25
2022-10-13T23:56:16.111Z,29.42
2022-10-13T23:58:50.292Z,29.50
